sensor_id;sensor_type;location;lat;lon;timestamp;temperature;humidity
66337;SHT30;53139;45.576;5.304;2022-07-29T04:50:11;18.29;66.59
66337;SHT30;53139;45.576;5.304;2022-07-29T04:53:11;18.42;65.51
66337;SHT30;53139;45.576;5.304;2022-07-29T04:56:12;18.52;64.59
66337;SHT30;53139;45.576;5.304;2022-07-29T04:59:12;18.59;64.75
66337;SHT30;53139;45.576;5.304;2022-07-29T05:02:12;18.75;64.56
66337;SHT30;53139;45.576;5.304;2022-07-29T05:05:13;18.80;64.13
66337;SHT30;53139;45.576;5.304;2022-07-29T05:08:13;18.83;64.64
66337;SHT30;53139;45.576;5.304;2022-07-29T05:11:14;18.87;64.63
66337;SHT30;53139;45.576;5.304;2022-07-29T05:14:14;18.95;64.48
66337;SHT30;53139;45.576;5.304;2022-07-29T05:17:15;19.11;63.96
66337;SHT30;53139;45.576;5.304;2022-07-29T05:20:15;19.23;64.38
66337;SHT30;53139;45.576;5.304;2022-07-29T05:23:18;19.36;63.50
66337;SHT30;53139;45.576;5.304;2022-07-29T05:26:19;19.33;63.77
66337;SHT30;53139;45.576;5.304;2022-07-29T05:29:19;19.25;64.10
66337;SHT30;53139;45.576;5.304;2022-07-29T05:32:19;19.32;63.79
66337;SHT30;53139;45.576;5.304;2022-07-29T05:35:20;19.50;64.00
66337;SHT30;53139;45.576;5.304;2022-07-29T05:38:20;19.60;63.75
66337;SHT30;53139;45.576;5.304;2022-07-29T05:41:21;19.81;63.08
66337;SHT30;53139;45.576;5.304;2022-07-29T05:44:21;19.75;63.64
66337;SHT30;53139;45.576;5.304;2022-07-29T05:47:22;19.71;64.09
66337;SHT30;53139;45.576;5.304;2022-07-29T05:50:23;19.63;64.35
66337;SHT30;53139;45.576;5.304;2022-07-29T05:53:24;19.64;64.59
66337;SHT30;53139;45.576;5.304;2022-07-29T05:56:25;19.70;65.67
66337;SHT30;53139;45.576;5.304;2022-07-29T05:59:25;19.50;66.85
66337;SHT30;53139;45.576;5.304;2022-07-29T06:02:26;19.52;66.73
66337;SHT30;53139;45.576;5.304;2022-07-29T06:05:26;19.62;65.30
66337;SHT30;53139;45.576;5.304;2022-07-29T06:08:26;19.78;63.70
66337;SHT30;53139;45.576;5.304;2022-07-29T06:11:27;19.62;64.68
66337;SHT30;53139;45.576;5.304;2022-07-29T06:14:27;19.91;63.42
66337;SHT30;53139;45.576;5.304;2022-07-29T06:17:28;20.05;63.08
66337;SHT30;53139;45.576;5.304;2022-07-29T06:20:29;20.11;64.33
66337;SHT30;53139;45.576;5.304;2022-07-29T06:23:30;19.64;64.80
66337;SHT30;53139;45.576;5.304;2022-07-29T06:26:30;19.32;68.50
66337;SHT30;53139;45.576;5.304;2022-07-29T06:29:31;19.50;68.91
66337;SHT30;53139;45.576;5.304;2022-07-29T06:32:31;19.30;70.18
66337;SHT30;53139;45.576;5.304;2022-07-29T06:35:34;19.49;69.61
66337;SHT30;53139;45.576;5.304;2022-07-29T06:38:36;19.22;72.11
66337;SHT30;53139;45.576;5.304;2022-07-29T06:41:38;19.29;73.46
66337;SHT30;53139;45.576;5.304;2022-07-29T06:44:38;19.40;72.66
66337;SHT30;53139;45.576;5.304;2022-07-29T06:47:39;19.53;72.32
66337;SHT30;53139;45.576;5.304;2022-07-29T06:50:39;18.84;75.44
66337;SHT30;53139;45.576;5.304;2022-07-29T06:53:40;18.52;78.23
66337;SHT30;53139;45.576;5.304;2022-07-29T06:56:40;18.37;78.63
66337;SHT30;53139;45.576;5.304;2022-07-29T06:59:41;19.11;75.37
66337;SHT30;53139;45.576;5.304;2022-07-29T07:02:42;18.88;75.09
66337;SHT30;53139;45.576;5.304;2022-07-29T07:05:42;19.19;75.05
66337;SHT30;53139;45.576;5.304;2022-07-29T07:08:43;19.11;74.89
66337;SHT30;53139;45.576;5.304;2022-07-29T07:11:43;19.19;74.31
66337;SHT30;53139;45.576;5.304;2022-07-29T07:14:44;19.30;74.51
66337;SHT30;53139;45.576;5.304;2022-07-29T07:17:44;19.71;73.53
66337;SHT30;53139;45.576;5.304;2022-07-29T07:20:45;19.77;73.94
66337;SHT30;53139;45.576;5.304;2022-07-29T07:23:46;19.57;74.56
66337;SHT30;53139;45.576;5.304;2022-07-29T07:26:46;19.26;75.39
66337;SHT30;53139;45.576;5.304;2022-07-29T07:29:47;18.84;76.72
66337;SHT30;53139;45.576;5.304;2022-07-29T07:32:47;18.91;75.65
66337;SHT30;53139;45.576;5.304;2022-07-29T07:35:48;19.47;75.73
66337;SHT30;53139;45.576;5.304;2022-07-29T07:38:48;19.07;78.81
66337;SHT30;53139;45.576;5.304;2022-07-29T07:41:48;19.07;78.55
66337;SHT30;53139;45.576;5.304;2022-07-29T07:44:49;19.01;79.23
66337;SHT30;53139;45.576;5.304;2022-07-29T07:47:49;19.78;76.66
66337;SHT30;53139;45.576;5.304;2022-07-29T07:50:50;19.59;78.30
66337;SHT30;53139;45.576;5.304;2022-07-29T07:53:51;20.07;75.58
66337;SHT30;53139;45.576;5.304;2022-07-29T07:56:51;20.14;75.95
66337;SHT30;53139;45.576;5.304;2022-07-29T07:59:52;20.36;74.31
66337;SHT30;53139;45.576;5.304;2022-07-29T08:02:52;20.49;73.41
66337;SHT30;53139;45.576;5.304;2022-07-29T08:05:52;19.94;76.30
66337;SHT30;53139;45.576;5.304;2022-07-29T08:08:54;19.69;77.13
66337;SHT30;53139;45.576;5.304;2022-07-29T08:11:55;19.57;78.36
66337;SHT30;53139;45.576;5.304;2022-07-29T08:14:56;19.74;78.71
66337;SHT30;53139;45.576;5.304;2022-07-29T08:17:56;19.55;78.33
66337;SHT30;53139;45.576;5.304;2022-07-29T08:20:57;19.67;78.88
66337;SHT30;53139;45.576;5.304;2022-07-29T08:23:58;20.02;77.10
66337;SHT30;53139;45.576;5.304;2022-07-29T08:27:17;19.85;76.25
66337;SHT30;53139;45.576;5.304;2022-07-29T08:30:18;19.53;78.71
66337;SHT30;53139;45.576;5.304;2022-07-29T08:33:18;19.66;77.78
66337;SHT30;53139;45.576;5.304;2022-07-29T08:36:18;19.40;79.74
66337;SHT30;53139;45.576;5.304;2022-07-29T08:39:21;19.64;78.70
66337;SHT30;53139;45.576;5.304;2022-07-29T08:42:22;19.64;79.24
66337;SHT30;53139;45.576;5.304;2022-07-29T08:45:23;19.90;78.36
66337;SHT30;53139;45.576;5.304;2022-07-29T08:48:25;19.64;78.83
66337;SHT30;53139;45.576;5.304;2022-07-29T08:51:26;19.59;77.49
66337;SHT30;53139;45.576;5.304;2022-07-29T08:54:28;19.43;77.20
66337;SHT30;53139;45.576;5.304;2022-07-29T08:57:29;19.32;78.09
66337;SHT30;53139;45.576;5.304;2022-07-29T09:00:31;19.64;76.91
66337;SHT30;53139;45.576;5.304;2022-07-29T09:03:34;19.80;75.40
66337;SHT30;53139;45.576;5.304;2022-07-29T09:06:37;19.75;75.96
66337;SHT30;53139;45.576;5.304;2022-07-29T09:09:38;19.69;75.49
66337;SHT30;53139;45.576;5.304;2022-07-29T09:12:40;19.53;76.50
66337;SHT30;53139;45.576;5.304;2022-07-29T09:15:40;19.56;77.58
66337;SHT30;53139;45.576;5.304;2022-07-29T09:18:43;19.32;76.92
66337;SHT30;53139;45.576;5.304;2022-07-29T09:21:43;18.84;78.95
66337;SHT30;53139;45.576;5.304;2022-07-29T09:24:59;18.70;79.04
66337;SHT30;53139;45.576;5.304;2022-07-29T09:28:13;18.37;78.71
66337;SHT30;53139;45.576;5.304;2022-07-29T09:31:14;18.43;81.22
66337;SHT30;53139;45.576;5.304;2022-07-29T09:34:20;18.29;81.74
66337;SHT30;53139;45.576;5.304;2022-07-29T09:37:28;18.43;81.06
66337;SHT30;53139;45.576;5.304;2022-07-29T09:40:28;18.29;81.35
66337;SHT30;53139;45.576;5.304;2022-07-29T09:43:29;18.22;80.52
66337;SHT30;53139;45.576;5.304;2022-07-29T09:46:29;18.15;80.81
66337;SHT30;53139;45.576;5.304;2022-07-29T09:49:30;18.11;81.17
66337;SHT30;53139;45.576;5.304;2022-07-29T09:52:30;18.05;81.88
66337;SHT30;53139;45.576;5.304;2022-07-29T09:55:30;17.95;81.31
66337;SHT30;53139;45.576;5.304;2022-07-29T09:58:31;17.94;80.96
66337;SHT30;53139;45.576;5.304;2022-07-29T10:01:34;18.00;81.93
66337;SHT30;53139;45.576;5.304;2022-07-29T10:04:40;18.00;81.73
66337;SHT30;53139;45.576;5.304;2022-07-29T10:07:52;17.92;82.51
66337;SHT30;53139;45.576;5.304;2022-07-29T10:11:09;18.00;84.13
66337;SHT30;53139;45.576;5.304;2022-07-29T10:14:10;18.00;84.31
66337;SHT30;53139;45.576;5.304;2022-07-29T10:17:10;18.01;84.25
66337;SHT30;53139;45.576;5.304;2022-07-29T10:20:10;18.18;84.13
66337;SHT30;53139;45.576;5.304;2022-07-29T10:23:11;18.25;83.97
66337;SHT30;53139;45.576;5.304;2022-07-29T10:26:12;18.26;83.61
66337;SHT30;53139;45.576;5.304;2022-07-29T10:29:13;18.46;84.28
66337;SHT30;53139;45.576;5.304;2022-07-29T10:32:26;18.45;83.86
66337;SHT30;53139;45.576;5.304;2022-07-29T10:39:24;18.78;83.84
66337;SHT30;53139;45.576;5.304;2022-07-29T10:42:29;18.84;83.61
66337;SHT30;53139;45.576;5.304;2022-07-29T10:45:30;18.92;83.72
66337;SHT30;53139;45.576;5.304;2022-07-29T10:48:30;18.81;83.56
66337;SHT30;53139;45.576;5.304;2022-07-29T10:54:50;18.88;82.75
66337;SHT30;53139;45.576;5.304;2022-07-29T10:58:15;19.23;83.11
66337;SHT30;53139;45.576;5.304;2022-07-29T11:01:29;19.19;83.26
66337;SHT30;53139;45.576;5.304;2022-07-29T11:20:58;20.29;81.09
66337;SHT30;53139;45.576;5.304;2022-07-29T11:24:17;19.94;81.21
66337;SHT30;53139;45.576;5.304;2022-07-29T11:27:19;20.49;79.71
66337;SHT30;53139;45.576;5.304;2022-07-29T11:30:48;21.63;80.94
66337;SHT30;53139;45.576;5.304;2022-07-29T11:33:50;22.17;78.80
66337;SHT30;53139;45.576;5.304;2022-07-29T11:40:11;22.56;77.08
66337;SHT30;53139;45.576;5.304;2022-07-29T11:46:50;24.18;74.21
66337;SHT30;53139;45.576;5.304;2022-07-29T11:49:51;24.31;74.05
66337;SHT30;53139;45.576;5.304;2022-07-29T11:52:52;24.09;70.70
66337;SHT30;53139;45.576;5.304;2022-07-29T11:55:55;23.80;74.47
66337;SHT30;53139;45.576;5.304;2022-07-29T11:59:04;24.01;72.08
66337;SHT30;53139;45.576;5.304;2022-07-29T12:02:04;24.47;72.73
66337;SHT30;53139;45.576;5.304;2022-07-29T12:05:05;24.61;71.21
66337;SHT30;53139;45.576;5.304;2022-07-29T12:11:18;27.11;67.37
66337;SHT30;53139;45.576;5.304;2022-07-29T12:14:29;24.68;70.67
66337;SHT30;53139;45.576;5.304;2022-07-29T12:17:33;26.28;67.04
66337;SHT30;53139;45.576;5.304;2022-07-29T12:20:33;26.99;67.90
66337;SHT30;53139;45.576;5.304;2022-07-29T12:23:34;27.10;68.50
66337;SHT30;53139;45.576;5.304;2022-07-29T12:26:34;28.08;67.35
66337;SHT30;53139;45.576;5.304;2022-07-29T12:29:35;27.30;65.63
66337;SHT30;53139;45.576;5.304;2022-07-29T12:32:37;26.85;65.10
66337;SHT30;53139;45.576;5.304;2022-07-29T12:35:38;26.98;60.56
66337;SHT30;53139;45.576;5.304;2022-07-29T12:38:40;26.81;63.64
66337;SHT30;53139;45.576;5.304;2022-07-29T12:41:40;28.88;62.28
66337;SHT30;53139;45.576;5.304;2022-07-29T12:44:48;27.48;61.64
66337;SHT30;53139;45.576;5.304;2022-07-29T12:47:52;28.48;63.52
66337;SHT30;53139;45.576;5.304;2022-07-29T12:50:57;29.38;61.14
66337;SHT30;53139;45.576;5.304;2022-07-29T12:54:10;27.29;58.79
66337;SHT30;53139;45.576;5.304;2022-07-29T12:57:10;27.93;60.07
66337;SHT30;53139;45.576;5.304;2022-07-29T13:00:11;28.08;61.61
66337;SHT30;53139;45.576;5.304;2022-07-29T13:03:13;28.01;57.57
66337;SHT30;53139;45.576;5.304;2022-07-29T13:06:44;26.10;59.48
66337;SHT30;53139;45.576;5.304;2022-07-29T13:09:45;28.36;60.29
66337;SHT30;53139;45.576;5.304;2022-07-29T13:16:06;30.25;54.35
66337;SHT30;53139;45.576;5.304;2022-07-29T13:19:10;29.77;54.78
66337;SHT30;53139;45.576;5.304;2022-07-29T13:22:18;29.33;55.85
66337;SHT30;53139;45.576;5.304;2022-07-29T13:25:27;28.40;54.45
66337;SHT30;53139;45.576;5.304;2022-07-29T13:28:28;28.29;55.56
66337;SHT30;53139;45.576;5.304;2022-07-29T13:31:29;30.99;53.99
66337;SHT30;53139;45.576;5.304;2022-07-29T13:34:29;27.31;54.43
66337;SHT30;53139;45.576;5.304;2022-07-29T13:37:30;29.08;53.69
66337;SHT30;53139;45.576;5.304;2022-07-29T13:40:32;30.41;56.00
66337;SHT30;53139;45.576;5.304;2022-07-29T13:43:35;29.49;52.79
66337;SHT30;53139;45.576;5.304;2022-07-29T13:46:35;31.54;54.26
66337;SHT30;53139;45.576;5.304;2022-07-29T13:49:36;30.94;49.23
66337;SHT30;53139;45.576;5.304;2022-07-29T13:52:36;31.08;51.73
66337;SHT30;53139;45.576;5.304;2022-07-29T13:55:38;31.05;46.86
66337;SHT30;53139;45.576;5.304;2022-07-29T13:58:38;31.43;49.66
66337;SHT30;53139;45.576;5.304;2022-07-29T14:01:39;28.71;51.85
66337;SHT30;53139;45.576;5.304;2022-07-29T14:04:42;29.20;54.28
66337;SHT30;53139;45.576;5.304;2022-07-29T14:07:42;30.02;52.33
66337;SHT30;53139;45.576;5.304;2022-07-29T14:10:43;29.75;51.10
66337;SHT30;53139;45.576;5.304;2022-07-29T14:13:43;29.25;53.57
66337;SHT30;53139;45.576;5.304;2022-07-29T14:16:43;30.46;50.66
66337;SHT30;53139;45.576;5.304;2022-07-29T14:19:44;30.25;51.19
66337;SHT30;53139;45.576;5.304;2022-07-29T14:22:44;30.05;51.97
66337;SHT30;53139;45.576;5.304;2022-07-29T14:25:44;30.33;50.35
66337;SHT30;53139;45.576;5.304;2022-07-29T14:28:45;32.02;48.39
66337;SHT30;53139;45.576;5.304;2022-07-29T14:31:45;33.70;49.46
66337;SHT30;53139;45.576;5.304;2022-07-29T14:34:45;32.97;48.89
66337;SHT30;53139;45.576;5.304;2022-07-29T14:37:46;32.56;48.26
66337;SHT30;53139;45.576;5.304;2022-07-29T14:40:46;31.33;51.44
66337;SHT30;53139;45.576;5.304;2022-07-29T14:43:47;31.45;49.69
66337;SHT30;53139;45.576;5.304;2022-07-29T14:46:47;31.03;50.35
66337;SHT30;53139;45.576;5.304;2022-07-29T14:49:47;30.22;50.72
66337;SHT30;53139;45.576;5.304;2022-07-29T14:52:48;30.65;55.11
66337;SHT30;53139;45.576;5.304;2022-07-29T14:55:48;33.21;51.90
66337;SHT30;53139;45.576;5.304;2022-07-29T14:58:49;33.56;43.77
66337;SHT30;53139;45.576;5.304;2022-07-29T15:01:49;33.39;43.57
66337;SHT30;53139;45.576;5.304;2022-07-29T15:04:50;31.57;46.99
66337;SHT30;53139;45.576;5.304;2022-07-29T15:07:50;34.11;48.81
66337;SHT30;53139;45.576;5.304;2022-07-29T15:10:51;34.27;46.00
66337;SHT30;53139;45.576;5.304;2022-07-29T15:13:51;34.31;41.70
66337;SHT30;53139;45.576;5.304;2022-07-29T15:16:51;34.25;38.24
66337;SHT30;53139;45.576;5.304;2022-07-29T15:19:52;35.50;43.68
66337;SHT30;53139;45.576;5.304;2022-07-29T15:22:53;34.82;41.36
66337;SHT30;53139;45.576;5.304;2022-07-29T15:25:55;33.46;40.63
66337;SHT30;53139;45.576;5.304;2022-07-29T15:28:55;33.12;40.85
66337;SHT30;53139;45.576;5.304;2022-07-29T15:31:56;34.68;41.00
66337;SHT30;53139;45.576;5.304;2022-07-29T15:34:56;34.78;40.54
66337;SHT30;53139;45.576;5.304;2022-07-29T15:37:56;34.42;43.96
66337;SHT30;53139;45.576;5.304;2022-07-29T15:40:57;35.08;38.77
66337;SHT30;53139;45.576;5.304;2022-07-29T15:43:57;33.72;39.36
66337;SHT30;53139;45.576;5.304;2022-07-29T15:46:58;32.11;44.83
66337;SHT30;53139;45.576;5.304;2022-07-29T15:50:07;33.85;41.52
66337;SHT30;53139;45.576;5.304;2022-07-29T15:53:13;34.08;39.16
66337;SHT30;53139;45.576;5.304;2022-07-29T15:56:13;34.63;40.14
66337;SHT30;53139;45.576;5.304;2022-07-29T15:59:14;34.14;38.56
66337;SHT30;53139;45.576;5.304;2022-07-29T16:02:14;34.28;40.33
66337;SHT30;53139;45.576;5.304;2022-07-29T16:05:15;34.04;39.68
66337;SHT30;53139;45.576;5.304;2022-07-29T16:08:15;34.76;38.51
66337;SHT30;53139;45.576;5.304;2022-07-29T16:11:15;34.40;41.42
66337;SHT30;53139;45.576;5.304;2022-07-29T16:14:16;32.69;39.02
66337;SHT30;53139;45.576;5.304;2022-07-29T16:17:17;33.31;42.38
66337;SHT30;53139;45.576;5.304;2022-07-29T16:20:17;31.39;43.47
66337;SHT30;53139;45.576;5.304;2022-07-29T16:23:19;30.71;48.63
66337;SHT30;53139;45.576;5.304;2022-07-29T16:26:20;30.84;47.66
66337;SHT30;53139;45.576;5.304;2022-07-29T16:29:20;31.18;44.88
66337;SHT30;53139;45.576;5.304;2022-07-29T16:32:21;30.90;46.61
66337;SHT30;53139;45.576;5.304;2022-07-29T16:35:21;30.56;49.85
66337;SHT30;53139;45.576;5.304;2022-07-29T16:38:21;30.15;46.23
66337;SHT30;53139;45.576;5.304;2022-07-29T16:41:22;30.39;47.02
66337;SHT30;53139;45.576;5.304;2022-07-29T16:44:22;31.11;47.18
66337;SHT30;53139;45.576;5.304;2022-07-29T16:47:23;30.91;45.50
66337;SHT30;53139;45.576;5.304;2022-07-29T16:50:23;30.77;45.44
66337;SHT30;53139;45.576;5.304;2022-07-29T16:53:24;30.40;48.59
66337;SHT30;53139;45.576;5.304;2022-07-29T16:56:25;29.85;47.45
66337;SHT30;53139;45.576;5.304;2022-07-29T16:59:25;29.67;46.84
66337;SHT30;53139;45.576;5.304;2022-07-29T17:02:26;30.09;49.03
66337;SHT30;53139;45.576;5.304;2022-07-29T17:05:27;30.54;49.60
66337;SHT30;53139;45.576;5.304;2022-07-29T17:08:27;29.25;49.02
66337;SHT30;53139;45.576;5.304;2022-07-29T17:11:27;29.40;49.40
66337;SHT30;53139;45.576;5.304;2022-07-29T17:14:29;29.36;48.12
66337;SHT30;53139;45.576;5.304;2022-07-29T17:17:30;28.87;51.73
66337;SHT30;53139;45.576;5.304;2022-07-29T17:20:31;28.63;53.41
66337;SHT30;53139;45.576;5.304;2022-07-29T17:23:32;28.74;51.18
66337;SHT30;53139;45.576;5.304;2022-07-29T17:26:32;28.58;51.26
66337;SHT30;53139;45.576;5.304;2022-07-29T17:29:33;28.41;52.43
66337;SHT30;53139;45.576;5.304;2022-07-29T17:32:34;27.64;53.62
66337;SHT30;53139;45.576;5.304;2022-07-29T17:35:37;27.48;50.74
66337;SHT30;53139;45.576;5.304;2022-07-29T17:39:00;27.36;53.03
66337;SHT30;53139;45.576;5.304;2022-07-29T17:42:02;27.24;55.10
66337;SHT30;53139;45.576;5.304;2022-07-29T17:45:03;27.07;53.63
66337;SHT30;53139;45.576;5.304;2022-07-29T17:48:03;27.03;55.13
66337;SHT30;53139;45.576;5.304;2022-07-29T17:51:04;26.83;52.44
66337;SHT30;53139;45.576;5.304;2022-07-29T17:54:04;26.43;52.09
66337;SHT30;53139;45.576;5.304;2022-07-29T17:57:05;26.07;52.74
66337;SHT30;53139;45.576;5.304;2022-07-29T18:00:06;26.13;53.04
66337;SHT30;53139;45.576;5.304;2022-07-29T18:03:06;25.97;54.11
66337;SHT30;53139;45.576;5.304;2022-07-29T18:06:07;26.02;54.88
66337;SHT30;53139;45.576;5.304;2022-07-29T18:09:09;26.10;56.83
66337;SHT30;53139;45.576;5.304;2022-07-29T18:12:09;26.09;58.57
66337;SHT30;53139;45.576;5.304;2022-07-29T18:15:10;26.02;57.22
66337;SHT30;53139;45.576;5.304;2022-07-29T18:18:14;25.99;59.68
66337;SHT30;53139;45.576;5.304;2022-07-29T18:21:15;25.81;58.09
66337;SHT30;53139;45.576;5.304;2022-07-29T18:24:15;25.89;59.22
66337;SHT30;53139;45.576;5.304;2022-07-29T18:27:16;25.85;59.70
66337;SHT30;53139;45.576;5.304;2022-07-29T18:30:16;25.71;58.37
66337;SHT30;53139;45.576;5.304;2022-07-29T18:33:17;25.42;59.96
66337;SHT30;53139;45.576;5.304;2022-07-29T18:36:19;25.48;62.37
66337;SHT30;53139;45.576;5.304;2022-07-29T18:39:19;25.16;59.35
66337;SHT30;53139;45.576;5.304;2022-07-29T18:42:19;25.30;61.72
66337;SHT30;53139;45.576;5.304;2022-07-29T18:45:20;25.30;60.46
66337;SHT30;53139;45.576;5.304;2022-07-29T18:48:20;25.03;61.76
66337;SHT30;53139;45.576;5.304;2022-07-29T18:51:21;25.06;61.92
66337;SHT30;53139;45.576;5.304;2022-07-29T18:54:21;24.90;61.40
66337;SHT30;53139;45.576;5.304;2022-07-29T18:57:22;24.62;61.78
66337;SHT30;53139;45.576;5.304;2022-07-29T19:00:23;24.64;61.04
66337;SHT30;53139;45.576;5.304;2022-07-29T19:03:24;24.75;61.01
66337;SHT30;53139;45.576;5.304;2022-07-29T19:06:25;24.61;62.74
66337;SHT30;53139;45.576;5.304;2022-07-29T19:09:25;24.48;64.07
66337;SHT30;53139;45.576;5.304;2022-07-29T19:12:26;24.14;64.16
66337;SHT30;53139;45.576;5.304;2022-07-29T19:15:26;24.29;63.88
66337;SHT30;53139;45.576;5.304;2022-07-29T19:18:27;24.11;64.73
66337;SHT30;53139;45.576;5.304;2022-07-29T19:21:27;23.89;64.14
66337;SHT30;53139;45.576;5.304;2022-07-29T19:24:27;23.83;65.59
66337;SHT30;53139;45.576;5.304;2022-07-29T19:27:28;23.58;65.55
66337;SHT30;53139;45.576;5.304;2022-07-29T19:30:28;23.38;65.93
66337;SHT30;53139;45.576;5.304;2022-07-29T19:33:29;23.54;66.10
66337;SHT30;53139;45.576;5.304;2022-07-29T19:36:30;23.17;66.00
66337;SHT30;53139;45.576;5.304;2022-07-29T19:39:30;23.03;65.57
66337;SHT30;53139;45.576;5.304;2022-07-29T19:42:31;22.59;67.87
66337;SHT30;53139;45.576;5.304;2022-07-29T19:45:31;22.82;67.30
66337;SHT30;53139;45.576;5.304;2022-07-29T19:48:32;22.67;67.06
66337;SHT30;53139;45.576;5.304;2022-07-29T19:51:32;22.65;67.42
66337;SHT30;53139;45.576;5.304;2022-07-29T19:54:33;22.72;66.91
66337;SHT30;53139;45.576;5.304;2022-07-29T19:57:33;22.49;67.34
66337;SHT30;53139;45.576;5.304;2022-07-29T20:00:34;22.12;68.54
66337;SHT30;53139;45.576;5.304;2022-07-29T20:03:34;22.14;68.93
66337;SHT30;53139;45.576;5.304;2022-07-29T20:06:34;22.17;68.95
66337;SHT30;53139;45.576;5.304;2022-07-29T20:09:35;22.25;68.21
66337;SHT30;53139;45.576;5.304;2022-07-29T20:12:35;22.02;68.42
66337;SHT30;53139;45.576;5.304;2022-07-29T20:15:37;21.98;68.72
66337;SHT30;53139;45.576;5.304;2022-07-29T20:18:37;22.14;68.88
66337;SHT30;53139;45.576;5.304;2022-07-29T20:21:37;21.93;69.34
66337;SHT30;53139;45.576;5.304;2022-07-29T20:24:38;22.01;69.72
66337;SHT30;53139;45.576;5.304;2022-07-29T20:27:38;21.93;69.56
66337;SHT30;53139;45.576;5.304;2022-07-29T20:30:39;21.53;70.93
66337;SHT30;53139;45.576;5.304;2022-07-29T20:33:40;21.65;70.47
66337;SHT30;53139;45.576;5.304;2022-07-29T20:36:41;21.52;69.72
66337;SHT30;53139;45.576;5.304;2022-07-29T20:39:42;21.35;69.97
66337;SHT30;53139;45.576;5.304;2022-07-29T20:42:42;21.42;70.33
66337;SHT30;53139;45.576;5.304;2022-07-29T20:45:43;21.19;71.87
66337;SHT30;53139;45.576;5.304;2022-07-29T20:48:44;21.17;72.12
66337;SHT30;53139;45.576;5.304;2022-07-29T20:51:45;21.12;71.91
66337;SHT30;53139;45.576;5.304;2022-07-29T20:54:46;21.12;71.60
66337;SHT30;53139;45.576;5.304;2022-07-29T20:57:46;21.01;71.71
66337;SHT30;53139;45.576;5.304;2022-07-29T21:00:47;20.64;72.76
66337;SHT30;53139;45.576;5.304;2022-07-29T21:03:47;20.43;72.83
66337;SHT30;53139;45.576;5.304;2022-07-29T21:06:47;20.87;71.20
66337;SHT30;53139;45.576;5.304;2022-07-29T21:09:48;20.28;72.61
66337;SHT30;53139;45.576;5.304;2022-07-29T21:12:48;20.55;71.89
66337;SHT30;53139;45.576;5.304;2022-07-29T21:15:49;20.12;73.28
66337;SHT30;53139;45.576;5.304;2022-07-29T21:18:51;20.50;72.31
66337;SHT30;53139;45.576;5.304;2022-07-29T21:21:52;19.97;73.61
66337;SHT30;53139;45.576;5.304;2022-07-29T21:24:52;20.07;73.73
66337;SHT30;53139;45.576;5.304;2022-07-29T21:27:52;20.08;73.72
66337;SHT30;53139;45.576;5.304;2022-07-29T21:31:13;20.10;73.63
66337;SHT30;53139;45.576;5.304;2022-07-29T21:34:14;20.15;73.28
66337;SHT30;53139;45.576;5.304;2022-07-29T21:37:14;19.55;75.00
66337;SHT30;53139;45.576;5.304;2022-07-29T21:40:15;19.55;75.23
66337;SHT30;53139;45.576;5.304;2022-07-29T21:43:16;19.63;74.92
66337;SHT30;53139;45.576;5.304;2022-07-29T21:46:16;19.25;75.79
66337;SHT30;53139;45.576;5.304;2022-07-29T21:49:17;19.47;74.85
66337;SHT30;53139;45.576;5.304;2022-07-29T21:52:17;19.23;74.52
66337;SHT30;53139;45.576;5.304;2022-07-29T21:55:18;18.95;75.09
66337;SHT30;53139;45.576;5.304;2022-07-29T21:58:19;18.77;76.03
66337;SHT30;53139;45.576;5.304;2022-07-29T22:01:21;18.87;76.00
66337;SHT30;53139;45.576;5.304;2022-07-29T22:04:21;19.09;74.94
66337;SHT30;53139;45.576;5.304;2022-07-29T22:07:21;18.56;76.65
66337;SHT30;53139;45.576;5.304;2022-07-29T22:10:23;18.64;76.84
66337;SHT30;53139;45.576;5.304;2022-07-29T22:13:23;18.53;76.58
66337;SHT30;53139;45.576;5.304;2022-07-29T22:16:24;18.40;77.38
66337;SHT30;53139;45.576;5.304;2022-07-29T22:19:24;18.61;77.15
66337;SHT30;53139;45.576;5.304;2022-07-29T22:22:25;18.67;76.85
66337;SHT30;53139;45.576;5.304;2022-07-29T22:25:26;18.53;76.83
66337;SHT30;53139;45.576;5.304;2022-07-29T22:28:26;18.39;76.95
66337;SHT30;53139;45.576;5.304;2022-07-29T22:31:27;18.53;76.36
66337;SHT30;53139;45.576;5.304;2022-07-29T22:34:27;18.22;76.86
66337;SHT30;53139;45.576;5.304;2022-07-29T22:37:27;18.26;76.82
66337;SHT30;53139;45.576;5.304;2022-07-29T22:40:28;18.52;75.56
66337;SHT30;53139;45.576;5.304;2022-07-29T22:43:28;18.63;74.93
66337;SHT30;53139;45.576;5.304;2022-07-29T22:46:29;18.52;75.47
66337;SHT30;53139;45.576;5.304;2022-07-29T22:49:29;18.57;75.34
66337;SHT30;53139;45.576;5.304;2022-07-29T22:52:30;18.47;75.77
66337;SHT30;53139;45.576;5.304;2022-07-29T22:55:30;18.46;75.59
66337;SHT30;53139;45.576;5.304;2022-07-29T22:58:31;18.24;76.17
66337;SHT30;53139;45.576;5.304;2022-07-29T23:01:31;18.11;77.12
66337;SHT30;53139;45.576;5.304;2022-07-29T23:04:32;17.95;77.13
66337;SHT30;53139;45.576;5.304;2022-07-29T23:07:32;17.98;76.89
66337;SHT30;53139;45.576;5.304;2022-07-29T23:10:32;17.95;76.88
66337;SHT30;53139;45.576;5.304;2022-07-29T23:13:33;18.15;75.93
66337;SHT30;53139;45.576;5.304;2022-07-29T23:16:33;17.75;76.96
66337;SHT30;53139;45.576;5.304;2022-07-29T23:19:34;17.90;76.94
66337;SHT30;53139;45.576;5.304;2022-07-29T23:22:34;18.02;75.82
66337;SHT30;53139;45.576;5.304;2022-07-29T23:25:35;17.97;75.44
66337;SHT30;53139;45.576;5.304;2022-07-29T23:28:35;17.47;76.94
66337;SHT30;53139;45.576;5.304;2022-07-29T23:31:36;17.73;76.68
66337;SHT30;53139;45.576;5.304;2022-07-29T23:34:36;17.60;76.66
66337;SHT30;53139;45.576;5.304;2022-07-29T23:37:37;17.43;77.22
66337;SHT30;53139;45.576;5.304;2022-07-29T23:40:37;17.59;76.57
66337;SHT30;53139;45.576;5.304;2022-07-29T23:43:38;17.62;76.78
66337;SHT30;53139;45.576;5.304;2022-07-29T23:46:38;17.62;76.61
66337;SHT30;53139;45.576;5.304;2022-07-29T23:49:38;17.42;77.12
66337;SHT30;53139;45.576;5.304;2022-07-29T23:52:39;17.59;76.48
66337;SHT30;53139;45.576;5.304;2022-07-29T23:55:40;17.49;76.59
66337;SHT30;53139;45.576;5.304;2022-07-29T23:58:40;17.28;77.16
